Time;durP1;ratioP1;P1;durP2;ratioP2;P2;SDS_P1;SDS_P2;PMS_P1;PMS_P2;Temp;Humidity;BMP_temperature;BMP_pressure;BME280_temperature;BME280_humidity;BME280_pressure;Samples;Min_cycle;Max_cycle;Signal;HPM_P1;HPM_P2
2023/08/13 00:01:23;;;;;;;;;4.00;3.00;;;;;24.82;100.00;101507.06;5061029;28;60745;-73
2023/08/13 00:03:48;;;;;;;;;4.33;3.00;;;;;24.87;100.00;101509.59;5076472;28;70852;-76
2023/08/13 00:06:13;;;;;;;;;3.67;3.00;;;;;24.91;100.00;101512.13;5075346;28;67087;-75
2023/08/13 00:08:39;;;;;;;;;6.00;3.00;;;;;24.87;100.00;101507.75;5077405;27;45631;-73
2023/08/13 00:11:09;;;;;;;;;4.00;2.67;;;;;24.87;100.00;101506.88;5076809;28;62649;-74
2023/08/13 00:13:34;;;;;;;;;5.67;3.00;;;;;24.87;100.00;101505.06;5059260;28;46778;-74
2023/08/13 00:16:00;;;;;;;;;4.00;2.67;;;;;24.88;100.00;101503.28;5076865;27;45371;-75
2023/08/13 00:18:26;;;;;;;;;4.67;3.00;;;;;24.83;100.00;101501.63;5076815;28;60494;-74
2023/08/13 00:20:51;;;;;;;;;3.67;2.67;;;;;24.81;100.00;101499.91;5077536;28;45241;-73
2023/08/13 00:23:16;;;;;;;;;3.00;3.00;;;;;24.76;100.00;101496.47;5077474;27;47303;-75
2023/08/13 00:25:42;;;;;;;;;7.67;3.00;;;;;24.73;100.00;101492.09;5076747;28;58003;-74
2023/08/13 00:28:07;;;;;;;;;4.00;4.00;;;;;24.72;100.00;101486.75;5076582;28;62757;-76
2023/08/13 00:30:34;;;;;;;;;3.00;3.00;;;;;24.70;100.00;101485.91;5074214;28;61970;-73
2023/08/13 00:32:59;;;;;;;;;4.00;3.00;;;;;24.68;100.00;101495.91;5076887;28;46440;-73
2023/08/13 00:35:25;;;;;;;;;6.00;3.00;;;;;24.60;100.00;101498.88;5077045;28;64093;-74
2023/08/13 00:37:50;;;;;;;;;2.00;2.00;;;;;24.55;100.00;101493.66;5071537;28;45502;-73
2023/08/13 00:40:15;;;;;;;;;3.33;3.33;;;;;24.52;100.00;101488.38;5058022;28;59849;-77
2023/08/13 00:42:41;;;;;;;;;2.67;2.00;;;;;24.50;100.00;101484.84;5076195;28;67227;-76
2023/08/13 00:45:07;;;;;;;;;2.67;2.67;;;;;24.52;100.00;101480.25;5088690;27;64831;-75
2023/08/13 00:47:32;;;;;;;;;4.33;2.67;;;;;24.44;100.00;101481.47;5065234;28;45347;-75
2023/08/13 00:49:58;;;;;;;;;2.67;2.67;;;;;24.44;100.00;101481.47;5077072;27;45460;-74
2023/08/13 00:52:23;;;;;;;;;2.00;2.00;;;;;24.45;100.00;101478.72;5075695;28;69815;-73
2023/08/13 00:54:48;;;;;;;;;4.00;3.00;;;;;24.48;100.00;101484.00;5057571;28;68122;-74
2023/08/13 00:57:14;;;;;;;;;2.00;2.00;;;;;24.47;100.00;101475.97;5077149;27;45983;-74
2023/08/13 00:59:39;;;;;;;;;6.00;3.00;;;;;24.46;100.00;101482.31;5077180;28;45387;-76
2023/08/13 01:02:05;;;;;;;;;4.67;4.00;;;;;24.44;100.00;101478.78;5075920;27;69319;-75
2023/08/13 01:04:31;;;;;;;;;4.33;3.00;;;;;24.43;100.00;101479.72;5076941;27;45208;-73
2023/08/13 01:07:12;;;;;;;;;3.33;3.33;;;;;24.44;100.00;101474.25;5076212;28;62799;-76
2023/08/13 01:09:49;;;;;;;;;5.67;3.00;;;;;24.46;100.00;101477.78;5076363;28;45516;-74
2023/08/13 01:12:38;;;;;;;;;8.00;2.00;;;;;24.45;100.00;101467.94;5075962;27;46392;-74
2023/08/13 01:15:15;;;;;;;;;3.00;3.00;;;;;24.45;100.00;101469.72;5069376;28;45548;-76
2023/08/13 01:17:43;;;;;;;;;2.67;2.00;;;;;24.39;100.00;101476.22;5075716;28;45403;-73
2023/08/13 01:20:09;;;;;;;;;4.00;1.00;;;;;24.39;100.00;101476.22;5058769;28;45621;-75
2023/08/13 01:22:39;;;;;;;;;4.00;3.00;;;;;24.40;100.00;101480.72;5076635;28;46443;-75
2023/08/13 01:25:08;;;;;;;;;2.00;2.00;;;;;24.35;100.00;101477.31;5075941;28;45288;-75
2023/08/13 01:27:43;;;;;;;;;4.00;3.00;;;;;24.38;100.00;101474.47;5075924;28;45399;-75
2023/08/13 01:30:41;;;;;;;;;5.00;2.00;;;;;24.23;100.00;101472.28;5058748;28;45449;-73
2023/08/13 01:33:08;;;;;;;;;4.00;2.00;;;;;24.12;100.00;101471.78;5053588;28;46764;-74
2023/08/13 01:35:34;;;;;;;;;3.67;3.00;;;;;24.08;100.00;101478.25;5076251;28;45547;-75
2023/08/13 01:38:00;;;;;;;;;2.00;2.00;;;;;24.02;100.00;101465.81;5076120;28;45406;-74
2023/08/13 01:40:25;;;;;;;;;6.33;3.00;;;;;24.02;100.00;101476.63;5076218;28;45613;-74
2023/08/13 01:42:51;;;;;;;;;2.00;2.00;;;;;24.00;100.00;101468.59;5046335;27;46519;-74
2023/08/13 01:45:16;;;;;;;;;4.67;3.00;;;;;24.00;100.00;101473.97;5076122;28;45410;-75
2023/08/13 01:47:41;;;;;;;;;5.33;2.00;;;;;23.93;100.00;101467.03;5076616;27;59877;-76
2023/08/13 01:50:07;;;;;;;;;3.67;2.00;;;;;23.94;100.00;101470.63;5075220;28;65281;-75
2023/08/13 01:52:32;;;;;;;;;2.33;2.00;;;;;23.92;100.00;101476.06;5076147;28;46245;-76
2023/08/13 01:54:58;;;;;;;;;6.00;3.00;;;;;23.92;100.00;101469.81;5066945;28;68467;-75
2023/08/13 01:57:23;;;;;;;;;5.00;2.00;;;;;23.91;100.00;101471.59;5076095;28;45295;-77
2023/08/13 01:59:49;;;;;;;;;3.00;3.00;;;;;23.93;100.00;101471.56;5075482;27;45292;-73
2023/08/13 02:02:14;;;;;;;;;7.00;2.00;;;;;23.89;100.00;101475.28;5075157;28;68464;-74
2023/08/13 02:04:39;;;;;;;;;5.00;2.00;;;;;23.80;100.00;101468.38;5076183;27;46298;-75
2023/08/13 02:07:05;;;;;;;;;4.00;3.00;;;;;23.81;100.00;101478.25;5078276;27;58329;-73
2023/08/13 02:09:30;;;;;;;;;2.33;2.00;;;;;23.81;100.00;101475.56;5079552;27;45279;-72
2023/08/13 02:11:55;;;;;;;;;5.00;2.67;;;;;23.77;100.00;101477.47;5077938;28;66975;-73
2023/08/13 02:14:21;;;;;;;;;4.67;2.67;;;;;23.85;100.00;101481.72;5071253;28;45403;-76
2023/08/13 02:16:46;;;;;;;;;3.00;1.33;;;;;23.77;100.00;101484.69;5078859;27;63095;-73
2023/08/13 02:19:11;;;;;;;;;5.00;2.00;;;;;23.77;100.00;101480.16;5079409;28;45501;-73
2023/08/13 02:21:37;;;;;;;;;3.00;2.00;;;;;23.74;100.00;101488.34;5078257;28;71472;-73
2023/08/13 02:24:02;;;;;;;;;3.00;2.00;;;;;23.74;100.00;101484.78;5058758;27;68914;-74
2023/08/13 02:26:27;;;;;;;;;4.33;1.00;;;;;23.68;100.00;101493.06;5079643;27;45451;-73
2023/08/13 02:28:53;;;;;;;;;3.00;2.00;;;;;23.66;100.00;101484.16;5059687;28;63026;-73
2023/08/13 02:31:18;;;;;;;;;2.33;2.33;;;;;23.73;100.00;101489.28;5078194;28;68955;-75
2023/08/13 02:33:43;;;;;;;;;2.00;2.00;;;;;23.74;100.00;101482.94;5077980;27;68425;-73
2023/08/13 02:36:09;;;;;;;;;5.67;2.67;;;;;23.74;100.00;101482.06;5083198;27;54193;-74
2023/08/13 02:38:34;;;;;;;;;2.00;2.00;;;;;23.74;100.00;101469.47;5075100;27;45448;-76
2023/08/13 02:40:59;;;;;;;;;1.00;1.00;;;;;23.76;100.00;101474.84;5083604;27;66443;-74
2023/08/13 02:43:32;;;;;;;;;2.67;2.00;;;;;23.74;100.00;101473.97;5077372;27;70419;-74
2023/08/13 02:45:57;;;;;;;;;4.00;2.00;;;;;23.74;100.00;101468.59;5064606;27;45222;-73
2023/08/13 02:48:23;;;;;;;;;4.67;2.00;;;;;23.76;100.00;101459.53;5081203;27;45965;-77
2023/08/13 02:50:48;;;;;;;;;6.00;1.33;;;;;23.70;100.00;101462.44;5078031;27;71267;-74
2023/08/13 02:53:13;;;;;;;;;1.67;1.67;;;;;23.67;100.00;101462.53;5079947;27;69717;-78
2023/08/13 02:55:38;;;;;;;;;2.00;2.00;;;;;23.71;100.00;101460.63;5088693;27;45349;-73
2023/08/13 02:58:04;;;;;;;;;3.00;2.00;;;;;23.71;100.00;101461.50;5077462;28;62807;-77
2023/08/13 03:00:29;;;;;;;;;4.00;2.00;;;;;23.72;100.00;101451.59;5078839;28;46535;-73
2023/08/13 03:02:55;;;;;;;;;4.00;2.00;;;;;23.72;100.00;101446.19;5077216;28;67351;-75
2023/08/13 03:05:20;;;;;;;;;3.67;1.33;;;;;23.71;100.00;101455.22;5063566;28;45427;-75
2023/08/13 03:07:45;;;;;;;;;5.33;2.00;;;;;23.66;100.00;101452.69;5075996;28;45485;-73
2023/08/13 03:10:12;;;;;;;;;3.00;1.33;;;;;23.71;100.00;101452.53;5078434;27;45642;-73
2023/08/13 03:12:37;;;;;;;;;2.00;1.00;;;;;23.73;100.00;101451.53;5078363;28;45374;-74
2023/08/13 03:15:03;;;;;;;;;2.33;2.00;;;;;23.68;100.00;101445.41;5078257;28;60504;-73
2023/08/13 03:17:28;;;;;;;;;2.33;2.00;;;;;23.52;100.00;101449.53;5077569;28;45466;-75
2023/08/13 03:19:55;;;;;;;;;1.00;1.00;;;;;23.49;100.00;101447.81;5077587;28;68033;-73
2023/08/13 03:22:20;;;;;;;;;3.33;2.33;;;;;23.46;100.00;101456.00;5067849;28;45388;-75
2023/08/13 03:24:46;;;;;;;;;1.33;1.33;;;;;23.49;100.00;101453.22;5069537;28;46660;-74
2023/08/13 03:27:11;;;;;;;;;4.67;2.33;;;;;23.52;100.00;101445.00;5077348;28;63225;-73
2023/08/13 03:29:36;;;;;;;;;3.00;2.00;;;;;23.43;100.00;101453.38;5078581;28;45717;-75
2023/08/13 03:32:02;;;;;;;;;2.00;2.00;;;;;23.36;100.00;101445.56;5042601;28;59105;-72
2023/08/13 03:34:27;;;;;;;;;4.33;2.00;;;;;23.37;100.00;101450.91;5078307;28;45432;-74
2023/08/13 03:36:52;;;;;;;;;4.00;2.00;;;;;23.32;100.00;101460.06;5077670;27;58544;-74
2023/08/13 03:39:18;;;;;;;;;4.00;3.00;;;;;23.32;100.00;101451.97;5077903;28;46410;-77
2023/08/13 03:41:43;;;;;;;;;4.00;1.33;;;;;23.23;100.00;101450.47;5077285;28;61901;-73
2023/08/13 03:44:09;;;;;;;;;2.67;2.00;;;;;23.20;100.00;101455.94;5079662;27;62820;-75
2023/08/13 03:46:34;;;;;;;;;3.67;3.00;;;;;23.18;100.00;101458.69;5066014;28;45571;-77
2023/08/13 03:48:59;;;;;;;;;3.67;2.00;;;;;23.16;100.00;101457.84;5076383;28;67160;-73
2023/08/13 03:51:25;;;;;;;;;4.00;3.00;;;;;23.21;100.00;101461.28;5076422;28;48839;-75
2023/08/13 03:53:50;;;;;;;;;1.33;1.33;;;;;23.08;100.00;101449.13;5077533;28;52010;-73
2023/08/13 03:56:15;;;;;;;;;5.67;2.00;;;;;22.99;100.00;101450.28;5077630;28;45600;-73
2023/08/13 03:58:41;;;;;;;;;2.00;2.00;;;;;22.98;100.00;101448.53;5077789;28;50190;-74
2023/08/13 04:01:07;;;;;;;;;4.00;1.67;;;;;22.99;100.00;101458.38;5075340;27;45371;-74
2023/08/13 04:03:33;;;;;;;;;3.67;1.00;;;;;22.98;100.00;101453.03;5069767;28;45411;-74
2023/08/13 04:05:58;;;;;;;;;2.67;2.33;;;;;22.96;100.00;101454.91;5054673;28;45679;-73
2023/08/13 04:08:24;;;;;;;;;3.33;1.67;;;;;23.04;100.00;101452.84;5071521;28;45735;-72
2023/08/13 04:10:50;;;;;;;;;3.00;2.00;;;;;23.02;100.00;101448.44;5076217;28;58194;-73
2023/08/13 04:13:15;;;;;;;;;4.00;1.00;;;;;23.02;100.00;101456.53;5077150;27;45279;-72
2023/08/13 04:15:41;;;;;;;;;4.33;3.00;;;;;23.02;100.00;101461.91;5075819;27;57938;-75
2023/08/13 04:18:06;;;;;;;;;6.00;1.33;;;;;23.04;100.00;101457.34;5076940;28;45453;-74
2023/08/13 04:20:32;;;;;;;;;2.00;2.00;;;;;23.02;100.00;101456.53;5077002;28;45550;-75
2023/08/13 04:22:57;;;;;;;;;2.00;2.00;;;;;23.02;100.00;101465.50;5059872;28;45424;-72
2023/08/13 04:25:23;;;;;;;;;3.33;2.00;;;;;22.98;100.00;101461.13;5076802;28;60179;-73
2023/08/13 04:27:48;;;;;;;;;3.00;3.00;;;;;23.02;100.00;101467.31;5076197;28;46349;-77
2023/08/13 04:30:13;;;;;;;;;1.67;1.67;;;;;22.90;100.00;101468.53;5076488;28;45190;-74
2023/08/13 04:32:39;;;;;;;;;6.33;2.00;;;;;22.95;100.00;101464.78;5076804;28;45383;-73
2023/08/13 04:35:05;;;;;;;;;3.67;2.00;;;;;22.86;100.00;101473.13;5075510;28;45583;-73
2023/08/13 04:37:31;;;;;;;;;6.33;3.00;;;;;22.91;100.00;101473.03;5078793;27;47220;-76
2023/08/13 04:39:57;;;;;;;;;4.00;2.67;;;;;22.86;100.00;101469.53;5083812;27;65275;-73
2023/08/13 04:42:22;;;;;;;;;2.33;2.00;;;;;22.86;100.00;101474.94;5085320;27;45495;-74
2023/08/13 04:44:48;;;;;;;;;3.67;3.00;;;;;22.93;100.00;101471.16;5076980;27;57454;-77
2023/08/13 04:47:13;;;;;;;;;1.00;1.00;;;;;22.95;100.00;101474.66;5072630;28;45623;-76
2023/08/13 04:49:38;;;;;;;;;5.33;2.00;;;;;22.92;100.00;101474.78;5083950;27;63753;-76
2023/08/13 04:52:04;;;;;;;;;3.33;2.67;;;;;22.98;100.00;101470.09;5081077;27;45288;-78
2023/08/13 04:54:29;;;;;;;;;3.33;2.00;;;;;22.99;100.00;101474.53;5087525;27;51043;-77
2023/08/13 04:56:54;;;;;;;;;5.00;1.00;;;;;22.99;100.00;101468.25;5078495;27;46563;-76
2023/08/13 04:59:20;;;;;;;;;3.00;2.00;;;;;23.05;100.00;101473.47;5075333;27;67627;-75
2023/08/13 05:01:45;;;;;;;;;2.67;1.00;;;;;23.08;100.00;101472.50;5076204;27;63624;-76
2023/08/13 05:04:12;;;;;;;;;5.67;2.33;;;;;23.11;100.00;101472.38;5077183;28;45399;-79
2023/08/13 05:06:37;;;;;;;;;6.33;2.00;;;;;23.11;100.00;101475.09;5076122;28;45837;-78
2023/08/13 05:09:03;;;;;;;;;5.00;2.33;;;;;23.10;100.00;101466.13;5076427;27;45731;-77
2023/08/13 05:11:28;;;;;;;;;3.33;2.00;;;;;23.19;100.00;101467.66;5076900;28;45538;-74
2023/08/13 05:13:53;;;;;;;;;4.00;2.67;;;;;23.18;100.00;101466.78;5075609;27;63636;-73
2023/08/13 05:16:19;;;;;;;;;2.33;2.33;;;;;23.10;100.00;101463.44;5075578;28;68895;-74
2023/08/13 05:18:44;;;;;;;;;5.33;2.67;;;;;23.05;100.00;101473.47;5074561;28;63591;-74
2023/08/13 05:21:09;;;;;;;;;7.00;2.33;;;;;22.99;100.00;101468.25;5070600;28;45484;-73
2023/08/13 05:23:35;;;;;;;;;6.33;2.00;;;;;23.01;100.00;101474.50;5076818;28;51935;-75
2023/08/13 05:26:00;;;;;;;;;5.00;2.00;;;;;23.01;100.00;101469.13;5053955;28;68914;-75
2023/08/13 05:28:25;;;;;;;;;5.33;3.33;;;;;22.98;100.00;101466.50;5069435;28;66889;-73
2023/08/13 05:30:51;;;;;;;;;1.67;1.33;;;;;23.09;100.00;101469.75;5076487;28;45808;-73
2023/08/13 05:33:16;;;;;;;;;3.33;1.67;;;;;23.16;100.00;101473.13;5075350;28;62861;-73
2023/08/13 05:35:41;;;;;;;;;6.00;4.00;;;;;23.17;100.00;101472.19;5078908;27;56711;-73
2023/08/13 05:38:07;;;;;;;;;3.00;2.67;;;;;23.10;100.00;101473.31;5081474;27;45422;-75
2023/08/13 05:40:32;;;;;;;;;5.00;3.33;;;;;23.03;100.00;101469.94;5085924;27;61904;-75
2023/08/13 05:42:57;;;;;;;;;4.00;2.00;;;;;23.06;100.00;101472.53;5091260;27;45456;-75
2023/08/13 05:45:23;;;;;;;;;4.67;1.00;;;;;23.06;100.00;101472.53;5078952;27;70062;-78
2023/08/13 05:47:48;;;;;;;;;3.00;2.67;;;;;23.09;100.00;101471.56;5079372;27;68763;-74
2023/08/13 05:50:13;;;;;;;;;4.00;2.67;;;;;23.14;100.00;101488.47;5083729;27;49214;-74
2023/08/13 05:52:39;;;;;;;;;4.00;1.67;;;;;23.14;100.00;101483.97;5083365;27;45387;-74
2023/08/13 05:55:05;;;;;;;;;4.00;2.33;;;;;23.18;100.00;101482.06;5079806;28;46563;-75
2023/08/13 05:57:30;;;;;;;;;1.33;1.33;;;;;23.25;100.00;101486.31;5078253;28;45518;-73
2023/08/13 05:59:55;;;;;;;;;2.33;2.00;;;;;23.24;100.00;101487.25;5079158;28;64762;-73
2023/08/13 06:02:21;;;;;;;;;5.00;2.00;;;;;23.29;100.00;101479.91;5078946;28;57246;-77
2023/08/13 06:04:46;;;;;;;;;5.00;1.00;;;;;23.27;100.00;101489.84;5079493;27;46449;-74
2023/08/13 06:07:12;;;;;;;;;5.67;2.00;;;;;23.08;100.00;101492.25;5078705;27;69553;-75
2023/08/13 06:09:37;;;;;;;;;5.33;4.00;;;;;23.03;100.00;101501.38;5078834;28;45338;-76
2023/08/13 06:12:02;;;;;;;;;3.00;2.00;;;;;23.02;100.00;101489.72;5075322;28;63021;-78
2023/08/13 06:14:28;;;;;;;;;5.00;2.00;;;;;23.02;100.00;101496.94;5079533;28;46328;-73
2023/08/13 06:16:53;;;;;;;;;7.00;2.00;;;;;23.05;100.00;101496.81;5077911;28;57167;-73
2023/08/13 06:19:18;;;;;;;;;4.33;2.33;;;;;23.09;100.00;101494.00;5078925;28;46855;-75
2023/08/13 06:21:44;;;;;;;;;7.33;2.67;;;;;23.07;100.00;101497.69;5078929;28;59762;-73
2023/08/13 06:24:09;;;;;;;;;3.00;2.67;;;;;23.08;100.00;101499.44;5078025;28;69753;-76
2023/08/13 06:26:36;;;;;;;;;6.67;2.67;;;;;23.08;100.00;101496.75;5060588;28;45613;-76
2023/08/13 06:29:01;;;;;;;;;2.67;1.00;;;;;23.04;100.00;101495.94;5079409;28;45420;-74
2023/08/13 06:31:27;;;;;;;;;4.33;3.00;;;;;23.05;100.00;101495.00;5079399;28;45259;-73
2023/08/13 06:33:52;;;;;;;;;2.00;2.00;;;;;23.06;100.00;101499.47;5078902;27;46304;-77
2023/08/13 06:36:17;;;;;;;;;1.33;1.33;;;;;23.13;100.00;101500.19;5086563;27;69459;-74
2023/08/13 06:38:43;;;;;;;;;4.67;2.00;;;;;23.27;100.00;101488.03;5078620;27;63343;-74
2023/08/13 06:41:08;;;;;;;;;5.67;3.00;;;;;23.29;100.00;101482.59;5078660;27;53443;-75
2023/08/13 06:43:34;;;;;;;;;2.00;1.00;;;;;23.34;100.00;101491.44;5083037;27;58949;-75
2023/08/13 06:46:00;;;;;;;;;1.67;1.67;;;;;23.37;100.00;101488.63;5084409;27;45449;-77
2023/08/13 06:48:33;;;;;;;;;5.00;2.00;;;;;23.46;100.00;101493.72;5069107;27;45515;-73
2023/08/13 06:50:59;;;;;;;;;4.33;3.00;;;;;23.52;100.00;101492.66;5076380;27;45460;-73
2023/08/13 06:53:24;;;;;;;;;6.00;2.00;;;;;23.52;100.00;101498.03;5077812;28;46795;-73
2023/08/13 06:55:50;;;;;;;;;3.33;2.00;;;;;23.55;100.00;101487.19;5076838;28;45288;-76
2023/08/13 06:58:16;;;;;;;;;2.00;2.00;;;;;23.57;100.00;101490.69;5077658;28;45342;-75
2023/08/13 07:00:41;;;;;;;;;3.67;2.00;;;;;23.62;100.00;101487.84;5071563;28;45213;-74
2023/08/13 07:03:07;;;;;;;;;4.00;2.67;;;;;23.63;100.00;101495.03;5073131;28;46438;-74
2023/08/13 07:05:33;;;;;;;;;2.00;2.00;;;;;23.62;100.00;101485.16;5071577;28;45631;-75
2023/08/13 07:07:59;;;;;;;;;3.67;3.67;;;;;23.63;100.00;101489.63;5076535;28;45575;-76
2023/08/13 07:10:24;;;;;;;;;3.33;1.33;;;;;23.65;100.00;101493.16;5075807;28;60881;-76
2023/08/13 07:12:49;;;;;;;;;4.33;1.00;;;;;23.65;100.00;101487.75;5077319;28;68279;-74
2023/08/13 07:15:15;;;;;;;;;2.00;2.00;;;;;23.71;100.00;101487.59;5078138;28;45338;-75
2023/08/13 07:17:40;;;;;;;;;2.67;1.00;;;;;23.81;100.00;101488.13;5077956;28;50658;-74
2023/08/13 07:20:10;;;;;;;;;4.00;1.00;;;;;23.84;100.00;101491.63;5077947;28;45411;-73
2023/08/13 07:22:37;;;;;;;;;2.67;2.00;;;;;23.86;100.00;101495.13;5076461;28;46657;-77
2023/08/13 07:25:03;;;;;;;;;5.33;2.00;;;;;23.84;100.00;101493.44;5078337;28;45203;-74
2023/08/13 07:27:28;;;;;;;;;3.00;1.00;;;;;23.86;100.00;101495.13;5077511;28;45410;-75
2023/08/13 07:29:54;;;;;;;;;3.33;2.00;;;;;23.90;100.00;101493.22;5064256;28;45440;-74
2023/08/13 07:32:19;;;;;;;;;3.00;2.00;;;;;23.93;100.00;101495.84;5072400;27;46813;-72
2023/08/13 07:34:45;;;;;;;;;5.00;2.00;;;;;23.94;100.00;101495.78;5075649;28;45988;-77
2023/08/13 07:37:10;;;;;;;;;1.67;1.00;;;;;23.79;100.00;101505.25;5069666;27;45285;-77
2023/08/13 07:39:36;;;;;;;;;1.33;1.00;;;;;23.74;100.00;101498.25;5074740;28;45617;-78
2023/08/13 07:42:01;;;;;;;;;2.33;0.67;;;;;23.71;100.00;101498.38;5158732;22;46159;-74
2023/08/13 07:44:28;;;;;;;;;7.00;2.00;;;;;23.76;100.00;101501.81;5051293;28;45498;-76
2023/08/13 07:46:56;;;;;;;;;2.67;2.00;;;;;23.81;100.00;101497.13;5053843;28;58783;-76
2023/08/13 07:49:21;;;;;;;;;4.67;2.00;;;;;23.89;100.00;101504.97;5051375;28;45823;-76
2023/08/13 07:51:46;;;;;;;;;3.00;1.00;;;;;23.95;100.00;101486.75;5051527;28;70303;-74
2023/08/13 07:54:12;;;;;;;;;2.00;1.00;;;;;23.99;100.00;101496.50;5051169;28;66082;-74
2023/08/13 07:56:37;;;;;;;;;1.00;1.00;;;;;24.05;100.00;101488.19;5038617;28;48761;-74
2023/08/13 07:59:04;;;;;;;;;3.00;2.00;;;;;24.09;100.00;101490.81;5046187;28;59763;-74
2023/08/13 08:01:30;;;;;;;;;1.00;1.00;;;;;24.05;100.00;101485.50;5047642;28;46769;-73
2023/08/13 08:03:56;;;;;;;;;4.33;1.00;;;;;24.08;100.00;101481.81;5053847;28;45493;-75
2023/08/13 08:06:21;;;;;;;;;2.33;2.00;;;;;24.10;100.00;101488.03;5045262;28;45533;-73
2023/08/13 08:08:46;;;;;;;;;2.33;0.33;;;;;24.08;100.00;101494.44;5049936;28;60070;-73
2023/08/13 08:11:12;;;;;;;;;1.00;1.00;;;;;24.09;100.00;101488.09;5059498;28;70798;-73
2023/08/13 08:13:37;;;;;;;;;4.00;1.00;;;;;24.14;100.00;101484.31;5053824;28;45741;-75
2023/08/13 08:16:02;;;;;;;;;2.33;1.00;;;;;24.18;100.00;101476.97;5058547;28;45386;-74
2023/08/13 08:18:28;;;;;;;;;4.00;2.00;;;;;24.14;100.00;101478.91;5053305;28;45659;-76
2023/08/13 08:20:54;;;;;;;;;1.00;1.00;;;;;24.15;100.00;101480.66;5047691;28;45743;-74
2023/08/13 08:23:19;;;;;;;;;4.33;1.00;;;;;24.19;100.00;101482.34;5048823;28;45371;-73
2023/08/13 08:25:44;;;;;;;;;5.00;2.00;;;;;24.21;100.00;101480.44;5042612;28;55161;-73
2023/08/13 08:28:10;;;;;;;;;3.00;1.00;;;;;24.22;100.00;101476.81;5044957;28;45461;-74
2023/08/13 08:30:36;;;;;;;;;2.33;1.00;;;;;24.28;100.00;101484.69;5051022;28;46451;-73
2023/08/13 08:33:01;;;;;;;;;4.00;2.00;;;;;24.29;100.00;101477.50;5045083;28;66760;-76
2023/08/13 08:35:26;;;;;;;;;5.00;1.00;;;;;24.33;100.00;101487.22;5049365;28;45534;-73
2023/08/13 08:37:52;;;;;;;;;1.67;0.67;;;;;24.33;100.00;101472.84;5047238;28;60716;-75
2023/08/13 08:40:17;;;;;;;;;1.33;1.33;;;;;24.35;100.00;101487.19;5044695;28;66263;-76
2023/08/13 08:42:43;;;;;;;;;1.33;0.67;;;;;24.39;100.00;101464.56;5040827;28;66408;-74
2023/08/13 08:45:10;;;;;;;;;3.67;1.00;;;;;24.39;100.00;101469.94;5048931;28;45585;-73
2023/08/13 08:47:38;;;;;;;;;2.00;1.00;;;;;24.39;100.00;101469.94;5054320;28;45448;-73
2023/08/13 08:50:04;;;;;;;;;2.00;2.00;;;;;24.38;100.00;101468.19;5052964;28;45761;-75
2023/08/13 08:52:32;;;;;;;;;2.67;2.00;;;;;24.43;100.00;101468.91;5053878;28;45550;-75
2023/08/13 08:54:59;;;;;;;;;4.00;0.67;;;;;24.48;100.00;101458.81;5042410;28;45510;-73
2023/08/13 08:57:24;;;;;;;;;3.00;0.00;;;;;24.52;100.00;101458.66;5052850;28;45543;-73
2023/08/13 08:59:51;;;;;;;;;2.00;1.00;;;;;24.55;100.00;101463.06;5039489;28;71147;-73
2023/08/13 09:02:17;;;;;;;;;1.00;1.00;;;;;24.58;100.00;101460.25;5047960;28;45545;-72
2023/08/13 09:04:43;;;;;;;;;1.00;1.00;;;;;24.66;100.00;101462.66;5048626;28;54407;-73
2023/08/13 09:07:08;;;;;;;;;0.33;0.33;;;;;24.72;100.00;101457.03;5047886;28;45342;-74
2023/08/13 09:09:34;;;;;;;;;0.00;0.00;;;;;24.65;100.00;101466.28;5055343;28;47325;-73
2023/08/13 09:12:00;;;;;;;;;1.00;1.00;;;;;24.75;100.00;101456.91;5056130;28;45488;-76
2023/08/13 09:14:26;;;;;;;;;4.00;0.33;;;;;24.76;100.00;101467.66;5037312;28;45325;-73
2023/08/13 09:16:53;;;;;;;;;1.00;1.00;;;;;24.89;100.00;101462.69;5053046;28;45299;-73
2023/08/13 09:19:19;;;;;;;;;1.00;1.00;;;;;24.98;100.00;101458.72;5055543;28;46546;-73
2023/08/13 09:21:52;;;;;;;;;1.67;1.00;;;;;24.99;100.00;101458.69;5039419;28;45419;-73
2023/08/13 09:24:18;;;;;;;;;0.00;0.00;;;;;25.09;100.00;101464.66;5055999;28;45421;-77
2023/08/13 09:26:44;;;;;;;;;1.00;1.00;;;;;25.16;100.00;101460.75;5056189;28;45383;-73
2023/08/13 09:29:10;;;;;;;;;3.00;0.00;;;;;25.22;100.00;101451.50;5034779;28;46507;-75
2023/08/13 09:31:35;;;;;;;;;2.33;1.00;;;;;25.21;100.00;101445.22;5047366;28;58970;-78
2023/08/13 09:34:01;;;;;;;;;2.33;0.00;;;;;25.23;100.00;101447.88;5054125;28;46838;-75
2023/08/13 09:36:27;;;;;;;;;1.33;0.00;;;;;25.26;100.00;101439.66;5048324;28;45591;-74
2023/08/13 09:38:53;;;;;;;;;3.00;1.00;;;;;25.38;100.00;101440.97;5046109;28;46534;-74
2023/08/13 09:41:20;;;;;;;;;2.00;1.00;;;;;25.40;100.00;101442.63;5054893;28;67758;-73
2023/08/13 09:43:49;;;;;;;;;2.67;0.00;;;;;25.47;100.00;101446.88;5055513;28;45379;-73
2023/08/13 09:46:20;;;;;;;;;0.67;0.00;;;;;25.52;100.00;101431.34;5046814;28;45605;-73
2023/08/13 09:48:46;;;;;;;;;0.00;0.00;;;;;25.56;100.00;101427.53;5054951;28;46619;-75
2023/08/13 09:51:13;;;;;;;;;2.33;0.00;;;;;25.64;100.00;101426.34;5051960;28;45576;-72
2023/08/13 09:53:42;;;;;;;;;0.00;0.00;;;;;25.64;100.00;101431.78;5035314;28;45516;-74
2023/08/13 09:56:09;;;;;;;;;1.33;1.00;;;;;25.60;100.00;101420.19;5051222;28;45131;-75
2023/08/13 09:58:34;;;;;;;;;1.33;1.00;;;;;25.59;100.00;101430.13;5039099;28;46499;-75
2023/08/13 10:01:00;;;;;;;;;2.00;0.00;;;;;25.57;100.00;101413.09;5053378;28;70312;-75
2023/08/13 10:03:27;;;;;;;;;0.33;0.33;;;;;25.65;100.00;101418.16;5035442;28;45341;-73
2023/08/13 10:05:55;;;;;;;;;3.00;0.00;;;;;25.69;100.00;101418.94;5054530;28;63238;-72
2023/08/13 10:08:21;;;;;;;;;0.67;0.67;;;;;25.67;100.00;101427.09;5052519;28;46214;-73
2023/08/13 10:10:48;;;;;;;;;2.00;0.33;;;;;25.61;100.00;101422.81;5054707;28;63420;-76
2023/08/13 10:13:13;;;;;;;;;0.00;0.00;;;;;25.67;100.00;101416.28;5037062;28;45212;-75
2023/08/13 10:15:39;;;;;;;;;2.00;0.00;;;;;25.68;100.00;101425.28;5055472;28;45294;-74
2023/08/13 10:18:04;;;;;;;;;4.00;1.00;;;;;25.71;100.00;101427.84;5055301;28;46406;-75
2023/08/13 10:20:30;;;;;;;;;1.00;0.00;;;;;25.69;100.00;101429.75;5042296;28;45447;-73
2023/08/13 10:22:55;;;;;;;;;3.33;1.00;;;;;25.75;100.00;101430.41;5054723;28;63222;-74
2023/08/13 10:25:33;;;;;;;;;1.00;1.00;;;;;25.70;100.00;101418.84;5054364;28;60401;-75
2023/08/13 10:27:59;;;;;;;;;1.00;1.00;;;;;25.72;100.00;101425.06;5045587;28;47803;-74
2023/08/13 10:30:24;;;;;;;;;1.33;0.00;;;;;25.72;100.00;101419.66;5056913;28;45820;-74
2023/08/13 10:32:59;;;;;;;;;3.33;0.33;;;;;25.76;100.00;101417.75;5058614;28;45217;-76
2023/08/13 10:35:37;;;;;;;;;2.00;0.00;;;;;25.87;100.00;101420.88;5057729;28;45148;-74
2023/08/13 10:38:03;;;;;;;;;4.67;1.00;;;;;25.97;100.00;101422.22;5033604;28;47195;-73
2023/08/13 10:40:29;;;;;;;;;3.00;0.00;;;;;25.97;100.00;101422.22;5050543;28;45545;-75
2023/08/13 10:42:56;;;;;;;;;0.00;0.00;;;;;26.00;100.00;101414.00;5059150;28;45734;-75
2023/08/13 10:45:27;;;;;;;;;1.00;1.00;;;;;26.11;100.00;101424.34;5058806;28;45529;-76
2023/08/13 10:48:03;;;;;;;;;0.33;0.00;;;;;26.11;100.00;101411.69;5054314;28;46375;-73
2023/08/13 10:50:31;;;;;;;;;1.00;1.00;;;;;26.11;99.87;101403.56;5052278;28;45446;-74
2023/08/13 10:53:05;;;;;;;;;1.33;1.00;;;;;26.10;100.00;101403.63;5041254;28;46478;-73
2023/08/13 10:55:33;;;;;;;;;1.33;0.00;;;;;26.11;100.00;101411.69;5058534;28;45413;-76
2023/08/13 10:57:58;;;;;;;;;0.33;0.33;;;;;26.17;100.00;101415.06;5056172;28;47553;-75
2023/08/13 11:00:25;;;;;;;;;0.00;0.00;;;;;26.23;99.25;101403.97;5039982;28;45257;-76
2023/08/13 11:02:57;;;;;;;;;2.00;0.00;;;;;26.32;98.81;101398.13;5045819;28;45459;-74
2023/08/13 11:05:23;;;;;;;;;0.00;0.00;;;;;26.41;99.20;101403.09;5042313;28;45601;-76
2023/08/13 11:07:50;;;;;;;;;0.00;0.00;;;;;26.45;98.28;101388.50;5050909;28;45462;-76
2023/08/13 11:10:18;;;;;;;;;0.33;0.33;;;;;26.51;97.46;101392.75;5057457;28;45466;-74
2023/08/13 11:12:47;;;;;;;;;2.00;0.00;;;;;26.54;97.94;101398.94;5047331;28;46830;-74